• Join FlightAware (Why Join?)
  • Login
  • US Flag 
12:14AM EDT


 

Airport Tracker/Info


-or-


 

Live Flight TrackerFlight Track Log ✈ KFS724 ✈ 19-Apr-2013 ✈ KSLN - KYIP

Flight Track Log - Related Links

Times and Time Zones

All times are in EDT time to prevent confusion due to time zone crossing. See the KFS724 flight status page for this flight to view local times or setup timezone preferences in your user account.

Time Position Orientation Groundspeed Altitude Reporting Facility
EDT Latitude Longitude Course Direction KTS MPH feet Rate Location/Type
07:26AM 38.8214 -97.6408 90° East 143 165 2,700  Level Kansas City Center
07:27AM 38.8439 -97.5642 69° East 225 259 4,300 2,280 Climbing Kansas City Center
07:28AM 38.8697 -97.4803 68° East 259 298 7,300 2,760 Climbing Kansas City Center
07:29AM 38.8994 -97.3861 68° East 272 313 10,000 1,980 Climbing Kansas City Center
07:30AM 38.9342 -97.2764 68° East 320 368 11,400 1,320 Climbing Kansas City Center
07:31AM 38.9714 -97.1567 68° East 367 422 12,800 1,980 Climbing Kansas City Center
07:32AM 39.0333 -96.7274 90° East  Level FlightAware Approximate
07:32AM 39.0125 -97.0247 68° East 389 448 15,500  Level Kansas City Center
07:33AM 39.0336 -96.8961 78° East 397 457 17,700 1,740 Climbing Kansas City Center
07:34AM 39.0186 -96.7567 98° East 413 475 19,100 1,200 Climbing Kansas City Center
07:35AM 39.0114 -96.5811 93° East 444 511 20,300 1,320 Climbing Kansas City Center
07:36AM 39.0236 -96.4303 84° East 446 513 21,900 1,500 Climbing Kansas City Center
07:37AM 39.0611 -96.2853 72° East 448 516 23,400 1,320 Climbing Kansas City Center
07:38AM 39.1164 -96.1186 67° East 456 525 24,600 1,140 Climbing Kansas City Center
07:39AM 39.1636 -95.9700 68° East 466 536 25,800 1,080 Climbing Kansas City Center
07:40AM 39.2117 -95.8192 68° East 476 548 26,800 840 Climbing Kansas City Center
07:41AM 39.2689 -95.6372 68° East 488 562 27,600 780 Climbing Kansas City Center
07:42AM 39.3183 -95.4792 68° East 491 565 28,500 900 Climbing Kansas City Center
07:43AM 39.3731 -95.3028 68° East 490 564 29,500 900 Climbing Kansas City Center
07:44AM 39.4253 -95.1372 68° East 497 572 30,300 660 Climbing Kansas City Center
07:45AM 39.4767 -94.9733 68° East 495 570 30,900 480 Climbing Kansas City Center
07:46AM 39.5250 -94.8136 69° East 497 572 31,300 420 Climbing Kansas City Center
07:47AM 39.5753 -94.6533 68° East 500 575 31,800 420 Climbing Kansas City Center
07:48AM 39.6325 -94.4642 69° East 503 579 32,200 420 Climbing Kansas City Center
07:49AM 39.6817 -94.3017 68° East 505 581 32,700 360 Climbing Kansas City Center
07:50AM 39.7311 -94.1400 68° East 504 580 33,000 120 Climbing Kansas City Center
07:52AM 39.7878 -93.9478 69° East 509 586 33,000  Level Kansas City Center
07:52AM 39.8311 -93.7944 70° East 524 603 33,000  Level Kansas City Center
07:54AM 39.8947 -93.5858 68° East 523 602 33,000  Level Kansas City Center
07:55AM 39.9450 -93.4081 70° East 529 609 33,000  Level Kansas City Center
07:56AM 39.9969 -93.2308 69° East 529 609 33,000  Level Kansas City Center
07:57AM 40.0489 -93.0514 69° East 535 616 33,000  Level Kansas City Center
07:58AM 40.1025 -92.8661 69° East 528 608 33,000  Level Kansas City Center
07:59AM 40.1508 -92.6914 70° East 536 617 33,000  Level Kansas City Center
08:00AM 40.2072 -92.4900 70° East 530 610 33,000  Level Kansas City Center
08:01AM 40.2594 -92.3086 69° East 533 613 33,000  Level Kansas City Center
08:02AM 40.3094 -92.1269 70° East 537 618 33,000  Level Kansas City Center
08:03AM 40.3597 -91.9436 70° East 538 619 33,000  Level Kansas City Center
08:04AM 40.4089 -91.7603 71° East 538 619 33,000  Level Kansas City Center
08:05AM 40.4586 -91.5767 70° East 539 620 33,000  Level Kansas City Center
08:06AM 40.5094 -91.3914 70° East 541 623 33,000  Level Kansas City Center
08:07AM 40.5647 -91.1900 70° East 543 625 33,000  Level Chicago Center
08:08AM 40.6142 -91.0042 71° East 541 623 33,000  Level Chicago Center
08:09AM 40.6728 -90.7803 71° East 540 621 33,000  Level Chicago Center
08:10AM 40.7225 -90.5936 71° East 539 620 33,000  Level Chicago Center
08:11AM 40.7703 -90.4050 71° East 540 621 33,000  Level Chicago Center
08:12AM 40.8211 -90.2083 71° East 542 624 33,000  Level Chicago Center
08:13AM 40.8700 -90.0208 71° East 543 625 33,000  Level Chicago Center
08:14AM 40.9142 -89.8328 73° East 540 621 33,000  Level Chicago Center
08:15AM 40.9625 -89.6444 71° East 541 623 33,000  Level Chicago Center
08:16AM 41.0125 -89.4475 71° East 542 624 33,000  Level Chicago Center
08:17AM 41.0611 -89.2572 71° East 543 625 33,000  Level Chicago Center
08:18AM 41.1136 -89.0403 72° East 541 623 33,000  Level Chicago Center
08:19AM 41.1594 -88.8511 72° East 542 624 33,000  Level Chicago Center
08:20AM 41.2047 -88.6589 73° East 546 628 33,000  Level Chicago Center
08:21AM 41.2508 -88.4672 72° East 549 632 33,000  Level Chicago Center
08:22AM 41.2964 -88.2744 72° East 550 633 33,000  Level Chicago Center
08:23AM 41.3489 -88.0625 72° East 557 641 33,000  Level Chicago Center
08:24AM 41.3911 -87.8617 74° East 551 634 33,000  Level Chicago Center
08:25AM 41.4367 -87.6725 72° East 544 626 33,000  Level Chicago Center
08:26AM 41.4892 -87.4403 73° East 547 629 33,000  Level Chicago Center
08:27AM 41.5336 -87.2456 73° East 549 632 33,000  Level Chicago Center
08:28AM 41.5772 -87.0514 73° East 547 629 33,000  Level Chicago Center
08:29AM 41.6197 -86.8575 74° East 545 627 33,000 -180 Level Chicago Center
08:30AM 41.6653 -86.6506 74° East 543 625 32,700 -720 Descending Chicago Center
08:31AM 41.7014 -86.4550 76° East 534 615 31,600 -1,740 Descending Chicago Center
08:33AM 41.7217 -86.2686 82° East 509 586 29,200 -2,760 Descending Chicago Center
08:34AM 41.7333 -86.0686 85° East 534 615 25,900 -2,220 Descending Chicago Center
08:35AM 41.7533 -85.8631 83° East 557 641 24,700 -1,740 Descending Chicago Center
08:36AM 41.8164 -85.6753 66° East 543 625 22,400 -2,820 Descending Chicago Center
08:37AM 41.8667 -85.4878 70° East 525 604 19,000 -2,520 Descending Chicago Center
08:38AM 41.9281 -85.2672 69° East 520 598 17,200 -960 Descending Chicago Center
08:39AM 41.9739 -85.0944 70° East 491 565 17,100 -60 Descending Chicago Center
08:40AM 42.0206 -84.9206 70° East 474 545 17,100  Level Chicago Center
08:41AM 42.0581 -84.7622 72° East 454 522 17,100 -1,680 Level Chicago Center
08:42AM 42.0389 -84.6197 100° East 392 451 13,700 -3,420 Descending Chicago Center
08:42AM 42.0278 -84.5414 101° East 402 463 12,100 -2,640 Descending FAA TRACON SMA TRACON (SMA)
08:43AM 42.0219 -84.4969 100° East 395 455 11,600 -1,200 Descending FAA TRACON SMA TRACON (SMA)
08:43AM 42.0161 -84.4561 101° East 369 425 11,300 -780 Descending FAA TRACON SMA TRACON (SMA)
08:43AM 42.0089 -84.4081 101° East 332 382 11,100 -480 Descending FAA TRACON SMA TRACON (SMA)
08:44AM 42.0025 -84.3700 103° East 339 390 11,000 -900 Descending FAA TRACON SMA TRACON (SMA)
08:44AM 41.9981 -84.3347 100° East 317 365 10,500 -1,080 Descending FAA TRACON SMA TRACON (SMA)
08:44AM 41.9931 -84.2939 99° East 279 321 10,300 -780 Descending FAA TRACON SMA TRACON (SMA)
08:45AM 41.9883 -84.2636 102° East 259 298 10,000 -480 Descending FAA TRACON SMA TRACON (SMA)
08:45AM 41.9822 -84.2322 105° East 279 321 10,000  Level FAA TRACON SMA TRACON (SMA)
08:45AM 41.9761 -84.1950 102° East 270 311 10,000  Level FAA TRACON SMA TRACON (SMA)
08:46AM 41.9711 -84.1650 103° East 269 310 10,000 -180 Level FAA TRACON SMA TRACON (SMA)
08:46AM 41.9697 -84.1331 93° East 286 329 9,900 -660 Descending Cleveland Center
08:47AM 42.0467 -84.0703 31° Northeast 332 382 9,200 -1,260 Descending Cleveland Center
08:48AM 42.1175 -83.9986 37° Northeast 330 380 7,500 -1,680 Descending Cleveland Center
08:49AM 42.1747 -83.8978 53° Northeast 303 349 5,800 -1,440 Descending Cleveland Center
08:50AM 42.2253 -83.8053 54° Northeast 310 357 4,600 -1,200 Descending Cleveland Center
08:51AM 42.2736 -83.7150 54° Northeast 304 350 3,400 -780 Descending Cleveland Center
08:52AM 42.3258 -83.6417 46° Northeast 260 299 3,100 -240 Descending Cleveland Center
08:52AM 42.3419 -83.6100 55° Northeast 255 293 3,100  Level FAA TRACON SMA TRACON (SMA)
08:53AM 42.3547 -83.5878 52° Northeast 251 289 3,100  Level FAA TRACON SMA TRACON (SMA)
08:53AM 42.3669 -83.5675 51° Northeast 228 262 3,100  Level FAA TRACON SMA TRACON (SMA)
08:53AM 42.3814 -83.5467 47° Northeast 215 247 3,100 -180 Level FAA TRACON SMA TRACON (SMA)
08:54AM 42.3925 -83.5233 57° Northeast 220 253 3,000 -480 Descending FAA TRACON SMA TRACON (SMA)
08:54AM 42.3944 -83.4922 85° East 206 237 2,800 -600 Descending FAA TRACON SMA TRACON (SMA)
08:54AM 42.3950 -83.4667 88° East 217 250 2,600 -480 Descending FAA TRACON SMA TRACON (SMA)
08:55AM 42.3972 -83.4428 83° East 198 228 2,500 -180 Descending FAA TRACON SMA TRACON (SMA)
08:55AM 42.3906 -83.4150 108° East 213 245 2,500  Level FAA TRACON SMA TRACON (SMA)
08:55AM 42.3800 -83.3983 131° Southeast 197 227 2,500  Level FAA TRACON SMA TRACON (SMA)
08:56AM 42.3658 -83.3911 159° South 181 208 2,500  Level FAA TRACON SMA TRACON (SMA)
08:56AM 42.3522 -83.3931 186° South 163 188 2,500 -180 Level FAA TRACON SMA TRACON (SMA)
08:56AM 42.3342 -83.3953 185° South 166 191 2,400 -180 Descending FAA TRACON SMA TRACON (SMA)
08:57AM 42.3231 -83.4061 216° Southwest 157 181 2,400 120 Level FAA TRACON SMA TRACON (SMA)
08:57AM 42.3150 -83.4183 228° Southwest 145 167 2,500 -180 Climbing FAA TRACON SMA TRACON (SMA)
08:57AM 42.3050 -83.4333 228° Southwest 139 160 2,300 -180 Descending FAA TRACON SMA TRACON (SMA)
08:58AM 42.2972 -83.4453 229° Southwest 136 157 2,400 300 Climbing FAA TRACON SMA TRACON (SMA)